Time;durP1;ratioP1;P1;durP2;ratioP2;P2;SDS_P1;SDS_P2;PMS_P1;PMS_P2;Temp;Humidity;BMP_temperature;BMP_pressure;BME280_temperature;BME280_humidity;BME280_pressure;Samples;Min_cycle;Max_cycle;Signal;HPM_P1;HPM_P2
2022/03/18 00:00:14;;;;;;;7.63;5.73;;;;;;;7.46;63.70;96156.94;5051444;28;20566;-77
2022/03/18 00:02:41;;;;;;;5.83;5.23;;;;;;;7.44;63.38;96156.22;5050970;28;20274;-77
2022/03/18 00:05:10;;;;;;;5.03;4.53;;;;;;;7.43;63.21;96166.50;5051073;28;20202;-76
2022/03/18 00:07:36;;;;;;;4.97;4.57;;;;;;;7.42;63.07;96154.66;5051508;28;20194;-79
2022/03/18 00:10:04;;;;;;;5.00;4.50;;;;;;;7.28;63.17;96140.13;5043581;28;20192;-75
2022/03/18 00:12:31;;;;;;;5.83;4.20;;;;;;;7.37;62.93;96156.63;5032706;28;20642;-76
2022/03/18 00:14:58;;;;;;;4.83;4.40;;;;;;;7.35;62.95;96155.91;5031244;28;20192;-77
2022/03/18 00:17:25;;;;;;;5.47;4.27;;;;;;;7.37;62.88;96162.53;5030879;28;20254;-76
2022/03/18 00:19:52;;;;;;;5.23;4.60;;;;;;;7.37;62.57;96164.25;5031319;28;20191;-78
2022/03/18 00:22:20;;;;;;;5.47;4.97;;;;;;;7.36;62.57;96166.00;5030853;28;20196;-77
2022/03/18 00:24:47;;;;;;;5.27;4.77;;;;;;;7.36;62.57;96165.16;5031266;28;20195;-78
2022/03/18 00:27:14;;;;;;;5.23;4.73;;;;;;;7.36;62.32;96172.81;5030974;28;20215;-77
2022/03/18 00:29:42;;;;;;;5.83;5.30;;;;;;;7.36;62.17;96178.72;5031098;28;20187;-75
2022/03/18 00:32:09;;;;;;;8.77;5.17;;;;;;;7.37;62.04;96182.91;5033532;28;20279;-77
2022/03/18 00:34:36;;;;;;;8.10;6.27;;;;;;;7.39;61.88;96177.75;5050075;28;20194;-76
2022/03/18 00:37:03;;;;;;;7.57;6.77;;;;;;;7.35;61.81;96179.63;5050700;28;20234;-76
2022/03/18 00:39:31;;;;;;;7.60;6.00;;;;;;;7.35;61.68;96181.34;5050847;28;20191;-75
2022/03/18 00:41:59;;;;;;;9.00;6.00;;;;;;;7.24;61.66;96166.63;5050527;28;20191;-76
2022/03/18 00:44:26;;;;;;;7.73;6.40;;;;;;;7.26;61.60;96169.94;5050477;28;20195;-76
2022/03/18 00:46:53;;;;;;;6.50;5.90;;;;;;;7.33;61.65;96181.41;5050265;28;20211;-77
2022/03/18 00:52:05;;;;;;;7.60;6.57;;;;;;;7.32;61.42;96184.88;5036767;28;20186;-76
2022/03/18 00:54:34;;;;;;;8.80;7.20;;;;;;;7.34;61.39;96184.78;5050401;28;20198;-76
2022/03/18 00:57:01;;;;;;;8.40;6.57;;;;;;;7.30;61.50;96189.22;5050787;28;20630;-77
2022/03/18 00:59:28;;;;;;;6.97;6.27;;;;;;;7.21;61.59;96180.34;5049994;28;20195;-77
2022/03/18 01:01:56;;;;;;;9.03;6.93;;;;;;;7.18;61.42;96190.69;5049981;28;20206;-77
2022/03/18 01:04:24;;;;;;;7.53;6.83;;;;;;;7.24;61.26;96197.97;5050656;28;20191;-78
2022/03/18 01:06:52;;;;;;;8.60;7.20;;;;;;;7.20;61.36;96195.69;5050438;28;20218;-74
2022/03/18 01:09:19;;;;;;;7.90;7.03;;;;;;;7.23;61.29;96201.44;5050133;28;20677;-77
2022/03/18 01:11:48;;;;;;;7.47;6.70;;;;;;;7.24;61.25;96203.06;5048567;28;20191;-76
2022/03/18 01:14:15;;;;;;;8.97;7.30;;;;;;;7.21;61.45;96197.31;5050372;28;20198;-78
2022/03/18 01:16:42;;;;;;;8.57;7.03;;;;;;;7.25;61.26;96199.66;5050009;28;20194;-78
2022/03/18 01:19:09;;;;;;;8.30;7.27;;;;;;;7.26;61.21;96205.56;5049861;28;20713;-76
2022/03/18 01:21:36;;;;;;;8.57;7.00;;;;;;;7.26;61.17;96205.56;5049858;28;20222;-76
2022/03/18 01:24:04;;;;;;;11.10;7.60;;;;;;;7.24;61.26;96200.53;5050392;28;20187;-75
2022/03/18 01:26:31;;;;;;;10.67;7.60;;;;;;;7.24;61.24;96197.16;5050756;28;20254;-75
2022/03/18 01:28:59;;;;;;;8.37;6.93;;;;;;;7.24;61.10;96197.97;5050153;28;20187;-78
2022/03/18 01:31:27;;;;;;;9.00;7.40;;;;;;;7.22;61.37;96193.91;5049754;28;20650;-77
2022/03/18 01:33:57;;;;;;;8.30;7.10;;;;;;;7.23;61.24;96198.06;5047376;28;20631;-76
2022/03/18 01:36:25;;;;;;;10.50;7.10;;;;;;;7.19;61.30;96194.03;5030907;28;20229;-77
2022/03/18 01:38:51;;;;;;;7.13;6.43;;;;;;;7.19;61.37;96197.41;5029934;28;20662;-77
2022/03/18 01:41:18;;;;;;;8.90;7.27;;;;;;;7.11;61.34;96193.63;5030213;28;20184;-78
2022/03/18 01:43:47;;;;;;;7.80;7.00;;;;;;;7.17;61.10;96203.50;5030168;28;20210;-79
2022/03/18 01:46:17;;;;;;;9.63;7.73;;;;;;;7.12;61.47;96196.06;5029678;28;20262;-79
2022/03/18 01:48:44;;;;;;;7.30;6.60;;;;;;;7.14;61.12;96211.28;5029909;28;20196;-78
2022/03/18 01:51:10;;;;;;;7.97;6.77;;;;;;;7.11;61.20;96198.72;5029441;28;20184;-77
2022/03/18 01:53:39;;;;;;;7.50;6.73;;;;;;;7.11;61.00;96199.53;5029964;28;20191;-80
2022/03/18 01:56:07;;;;;;;9.80;6.97;;;;;;;7.01;60.92;96186.47;5046986;28;20229;-78
2022/03/18 01:58:34;;;;;;;8.63;6.97;;;;;;;7.00;60.58;96189.91;5049580;28;20198;-75
2022/03/18 02:01:02;;;;;;;9.80;6.80;;;;;;;7.09;60.17;96208.16;5054172;28;20190;-76
2022/03/18 02:03:30;;;;;;;9.20;7.27;;;;;;;7.04;60.08;96216.84;5053849;28;20195;-82
2022/03/18 02:05:58;;;;;;;8.13;6.83;;;;;;;7.05;59.96;96212.56;5053557;28;20195;-77
2022/03/18 02:08:25;;;;;;;8.57;7.10;;;;;;;7.03;59.88;96210.09;5053781;28;20210;-78
2022/03/18 02:10:53;;;;;;;8.87;6.33;;;;;;;7.00;59.67;96206.91;5053542;28;20187;-76
2022/03/18 02:13:19;;;;;;;8.17;6.83;;;;;;;7.03;59.57;96217.72;5053229;28;20566;-76
2022/03/18 02:15:46;;;;;;;10.07;7.30;;;;;;;7.00;59.39;96206.91;5038001;28;20199;-78
2022/03/18 02:18:13;;;;;;;10.33;7.23;;;;;;;6.94;59.33;96199.56;5033576;28;20626;-76
2022/03/18 02:20:41;;;;;;;7.33;6.47;;;;;;;6.87;58.82;96188.09;5033709;28;20195;-82
2022/03/18 02:23:09;;;;;;;8.10;6.30;;;;;;;6.95;59.07;96207.16;5033265;28;20188;-77
2022/03/18 02:25:36;;;;;;;8.77;6.57;;;;;;;6.96;59.08;96207.97;5033647;28;20195;-81
2022/03/18 02:28:05;;;;;;;9.30;6.80;;;;;;;6.94;59.13;96209.75;5033334;28;20235;-80
2022/03/18 02:30:33;;;;;;;9.00;6.47;;;;;;;6.93;58.99;96203.84;5033514;28;20191;-75
2022/03/18 02:33:01;;;;;;;7.83;6.43;;;;;;;6.92;59.14;96207.28;5035457;28;20278;-80
2022/03/18 02:35:29;;;;;;;8.80;6.87;;;;;;;6.88;59.33;96208.34;5050559;28;20187;-77
2022/03/18 02:37:57;;;;;;;8.20;7.17;;;;;;;6.88;59.36;96220.25;5055947;28;20265;-77
2022/03/18 02:40:26;;;;;;;10.00;7.10;;;;;;;6.87;59.50;96221.16;5053029;28;20187;-78
2022/03/18 02:42:53;;;;;;;8.77;7.20;;;;;;;6.88;59.64;96223.59;5052901;28;20187;-78
2022/03/18 02:45:20;;;;;;;10.33;7.13;;;;;;;6.81;59.71;96223.97;5053147;28;20669;-77
2022/03/18 02:47:47;;;;;;;9.23;7.00;;;;;;;6.84;59.91;96227.19;5052735;28;20219;-76
2022/03/18 02:50:15;;;;;;;12.83;7.27;;;;;;;6.84;60.06;96234.81;5039461;28;20269;-78
2022/03/18 02:52:42;;;;;;;8.60;7.40;;;;;;;6.78;60.17;96246.13;5033286;28;20206;-80
2022/03/18 02:55:10;;;;;;;8.73;7.67;;;;;;;6.78;60.34;96243.59;5042921;28;20194;-79
2022/03/18 02:57:42;;;;;;;8.23;6.70;;;;;;;6.77;60.53;96241.91;5052934;28;20705;-76
2022/03/18 03:00:10;;;;;;;7.93;6.90;;;;;;;6.74;60.75;96252.25;5051762;28;20194;-78
2022/03/18 03:02:36;;;;;;;8.47;7.13;;;;;;;6.71;60.77;96247.31;5032617;28;20191;-75
2022/03/18 03:08:00;;;;;;;8.73;7.27;;;;;;;6.64;61.07;96253.59;5032490;28;20242;-76
2022/03/18 03:10:26;;;;;;;8.80;7.00;;;;;;;6.58;61.18;96253.91;5031427;28;20195;-75
2022/03/18 03:12:55;;;;;;;7.80;6.93;;;;;;;6.62;61.12;96255.41;5032548;28;20195;-75
2022/03/18 03:15:22;;;;;;;8.43;7.53;;;;;;;6.60;61.07;96257.19;5032506;28;20200;-77
2022/03/18 03:17:48;;;;;;;8.60;7.70;;;;;;;6.57;61.19;96251.44;5032279;28;20199;-76
2022/03/18 03:20:15;;;;;;;8.63;7.73;;;;;;;6.54;61.30;96262.56;5032228;28;20196;-75
2022/03/18 03:22:42;;;;;;;8.33;7.43;;;;;;;6.52;61.15;96259.31;5032104;28;20191;-76
2022/03/18 03:25:09;;;;;;;9.23;7.87;;;;;;;6.50;61.26;96256.81;5032094;28;20199;-75
2022/03/18 03:27:36;;;;;;;10.27;8.67;;;;;;;6.51;61.26;96268.63;5032232;28;20254;-76
2022/03/18 03:30:07;;;;;;;10.40;9.00;;;;;;;6.49;61.30;96272.16;5032038;28;20215;-75
2022/03/18 03:32:33;;;;;;;9.37;8.37;;;;;;;6.47;61.30;96272.19;5032283;28;20191;-75
2022/03/18 03:35:00;;;;;;;9.77;8.13;;;;;;;6.43;61.37;96274.97;5041136;28;20183;-77
2022/03/18 03:37:28;;;;;;;8.97;8.07;;;;;;;6.46;61.17;96285.81;5051760;28;20230;-76
2022/03/18 03:39:55;;;;;;;9.93;8.93;;;;;;;6.46;61.24;96277.38;5051868;28;20191;-76
2022/03/18 03:42:22;;;;;;;10.20;9.20;;;;;;;6.45;61.34;96280.81;5051927;28;20183;-75
2022/03/18 03:44:49;;;;;;;11.00;9.30;;;;;;;6.44;61.21;96281.72;5051995;28;20234;-76
2022/03/18 03:47:17;;;;;;;10.77;9.27;;;;;;;6.39;61.29;96279.41;5051481;28;20280;-77
2022/03/18 03:49:45;;;;;;;10.90;9.40;;;;;;;6.43;61.20;96297.84;5040438;28;20195;-78
2022/03/18 03:52:12;;;;;;;12.90;10.33;;;;;;;6.42;61.23;96297.00;5031295;28;20234;-77
2022/03/18 03:54:40;;;;;;;10.73;9.63;;;;;;;6.41;61.30;96294.56;5038030;28;20211;-78
2022/03/18 03:57:08;;;;;;;9.90;8.90;;;;;;;6.37;61.19;96293.06;5051279;28;20218;-77
2022/03/18 03:59:35;;;;;;;9.80;8.60;;;;;;;6.42;61.09;96301.28;5051581;28;20612;-77
2022/03/18 04:02:03;;;;;;;9.83;8.77;;;;;;;6.41;61.11;96299.63;5051059;28;20187;-79
2022/03/18 04:04:32;;;;;;;9.93;8.80;;;;;;;6.39;61.06;96307.34;5051309;28;20191;-77
2022/03/18 04:07:00;;;;;;;10.30;8.80;;;;;;;6.39;60.93;96309.88;5051009;28;20256;-83
2022/03/18 04:09:27;;;;;;;9.27;8.13;;;;;;;6.39;60.93;96309.88;5051416;28;20230;-76
2022/03/18 04:11:54;;;;;;;8.63;7.67;;;;;;;6.36;60.80;96312.56;5051325;28;20191;-78
2022/03/18 04:14:20;;;;;;;9.30;8.40;;;;;;;6.38;60.65;96315.84;5047327;28;20238;-77
2022/03/18 04:16:47;;;;;;;8.97;7.50;;;;;;;6.36;60.63;96314.28;5030941;28;20291;-76
2022/03/18 04:19:14;;;;;;;8.80;7.70;;;;;;;6.33;60.46;96310.16;5030934;28;20196;-76
2022/03/18 04:21:43;;;;;;;8.90;7.60;;;;;;;6.26;60.30;96317.25;5030669;28;20192;-76
2022/03/18 04:24:10;;;;;;;7.63;6.83;;;;;;;6.21;60.34;96308.19;5030961;28;20223;-77
2022/03/18 04:26:37;;;;;;;8.47;6.50;;;;;;;6.35;60.25;96325.31;5030952;28;20184;-76
2022/03/18 04:29:04;;;;;;;8.60;7.80;;;;;;;6.34;60.22;96326.22;5030788;28;20192;-80
2022/03/18 04:31:31;;;;;;;8.60;7.80;;;;;;;6.34;60.17;96326.22;5041028;28;20195;-79
2022/03/18 04:33:58;;;;;;;8.00;7.20;;;;;;;6.31;60.08;96327.22;5049924;28;20195;-76
2022/03/18 04:36:24;;;;;;;8.20;7.40;;;;;;;6.33;60.18;96332.22;5050594;28;20237;-78
2022/03/18 04:38:53;;;;;;;9.20;7.50;;;;;;;6.32;60.09;96325.50;5050415;28;20662;-76
2022/03/18 04:41:20;;;;;;;8.43;7.17;;;;;;;6.34;60.06;96328.75;5050508;28;20289;-75
2022/03/18 04:43:46;;;;;;;7.33;6.63;;;;;;;6.32;59.93;96331.38;5050262;28;20724;-75
2022/03/18 04:46:13;;;;;;;8.93;7.80;;;;;;;6.35;59.87;96333.78;5050609;28;20202;-76
2022/03/18 04:48:40;;;;;;;8.00;7.20;;;;;;;6.18;59.92;96309.16;5048650;28;20229;-76
2022/03/18 04:51:07;;;;;;;8.67;7.80;;;;;;;6.34;59.73;96338.94;5050447;28;20274;-77
2022/03/18 04:53:36;;;;;;;7.60;6.73;;;;;;;6.30;59.84;96340.78;5049707;28;20224;-76
2022/03/18 04:56:04;;;;;;;8.60;6.93;;;;;;;6.36;59.59;96348.13;5049466;28;20184;-76
2022/03/18 04:58:31;;;;;;;9.17;7.60;;;;;;;6.36;59.82;96342.25;5050095;28;20629;-76
2022/03/18 05:00:58;;;;;;;8.17;7.37;;;;;;;6.36;59.69;96349.84;5044939;28;20639;-75
2022/03/18 05:03:25;;;;;;;8.53;7.47;;;;;;;6.36;59.56;96350.69;5030013;28;20202;-77
2022/03/18 05:05:52;;;;;;;8.70;7.70;;;;;;;6.37;59.50;96354.88;5029958;28;20235;-74
2022/03/18 05:08:19;;;;;;;8.63;7.20;;;;;;;6.36;59.42;96353.22;5030244;28;20231;-75
2022/03/18 05:10:48;;;;;;;8.67;7.60;;;;;;;6.39;59.49;96354.78;5037986;28;20290;-76
2022/03/18 05:13:17;;;;;;;10.70;7.77;;;;;;;6.37;59.14;96356.59;5041826;28;20192;-75
2022/03/18 05:15:44;;;;;;;8.43;7.00;;;;;;;6.42;59.13;96363.09;5029769;28;20195;-76
2022/03/18 05:18:11;;;;;;;8.87;7.07;;;;;;;6.45;59.04;96357.06;5029826;28;20663;-77
2022/03/18 05:20:38;;;;;;;8.60;6.93;;;;;;;6.49;58.89;96356.00;5041120;28;20195;-77
2022/03/18 05:23:05;;;;;;;7.60;6.80;;;;;;;6.49;58.65;96356.00;5049974;28;20198;-75
2022/03/18 05:25:31;;;;;;;10.60;6.30;;;;;;;6.55;58.87;96360.81;5049833;28;20195;-75
2022/03/18 05:27:58;;;;;;;9.20;6.70;;;;;;;6.62;58.52;96361.34;5049840;28;20211;-73
2022/03/18 05:30:26;;;;;;;7.87;6.17;;;;;;;6.70;58.57;96366.91;5050087;28;20580;-74
2022/03/18 05:32:53;;;;;;;7.20;5.97;;;;;;;6.78;58.62;96363.09;5044271;28;20190;-71
2022/03/18 05:35:20;;;;;;;8.70;7.03;;;;;;;6.89;58.12;96365.09;5029138;28;20202;-73
2022/03/18 05:37:47;;;;;;;8.90;6.47;;;;;;;6.97;58.07;96352.84;5044075;28;20269;-77
2022/03/18 05:40:18;;;;;;;6.97;6.27;;;;;;;7.15;57.43;96360.47;5046914;28;20206;-73
2022/03/18 05:42:44;;;;;;;7.17;6.00;;;;;;;7.33;56.94;96359.56;5049005;28;20195;-72
2022/03/18 05:45:11;;;;;;;7.77;5.90;;;;;;;7.66;56.76;96361.31;5049322;28;20187;-75
2022/03/18 05:47:40;;;;;;;6.63;6.03;;;;;;;8.07;56.69;96373.59;5047710;28;20230;-72
2022/03/18 05:50:08;;;;;;;6.70;5.60;;;;;;;8.50;56.51;96372.97;5047156;28;20199;-75
2022/03/18 05:52:36;;;;;;;7.43;5.93;;;;;;;8.99;56.42;96372.00;5046263;28;20184;-72
2022/03/18 05:55:04;;;;;;;6.50;5.90;;;;;;;9.42;56.11;96379.78;5048045;28;20249;-83
2022/03/18 05:57:30;;;;;;;5.57;5.07;;;;;;;9.74;55.49;96385.53;5041130;28;20658;-79
2022/03/18 06:00:01;;;;;;;7.00;5.93;;;;;;;9.95;54.88;96380.88;5045292;28;20203;-74
2022/03/18 06:02:33;;;;;;;6.17;5.57;;;;;;;10.07;54.25;96377.59;5047804;28;20183;-76
2022/03/18 06:05:02;;;;;;;6.03;5.37;;;;;;;10.14;53.77;96385.69;5048220;28;20191;-78
2022/03/18 06:07:31;;;;;;;7.53;5.20;;;;;;;10.16;53.09;96384.69;5047471;28;20218;-76
2022/03/18 06:12:48;;;;;;;5.30;4.80;;;;;;;10.50;51.64;96396.28;5047360;28;20202;-72
2022/03/18 06:15:15;;;;;;;7.83;4.90;;;;;;;10.57;51.28;96414.59;5047783;28;20199;-77
2022/03/18 06:17:41;;;;;;;6.87;5.10;;;;;;;10.57;50.96;96414.59;5046866;28;20203;-75
2022/03/18 06:20:11;;;;;;;6.20;5.10;;;;;;;10.52;50.49;96414.06;5048071;28;20260;-77
2022/03/18 06:22:38;;;;;;;5.53;5.03;;;;;;;10.45;49.65;96431.53;5047568;28;20197;-75
2022/03/18 06:25:05;;;;;;;10.37;4.70;;;;;;;10.40;49.43;96430.97;5045528;28;20232;-74
2022/03/18 06:27:32;;;;;;;8.07;5.43;;;;;;;10.31;49.24;96434.09;5047527;28;20748;-74
2022/03/18 06:29:59;;;;;;;8.70;5.27;;;;;;;10.28;48.66;96419.78;5046346;28;20286;-75
2022/03/18 06:32:26;;;;;;;6.30;5.00;;;;;;;10.39;48.61;96431.91;5047345;28;20188;-78
2022/03/18 06:34:52;;;;;;;6.97;5.97;;;;;;;10.75;48.54;96428.84;5045245;28;20232;-77
2022/03/18 06:37:21;;;;;;;5.53;5.03;;;;;;;11.21;48.68;96441.25;5044254;28;20222;-74
2022/03/18 06:39:47;;;;;;;6.00;5.00;;;;;;;11.51;48.52;96451.25;5047597;28;20630;-73
2022/03/18 06:42:14;;;;;;;6.03;5.43;;;;;;;11.69;48.19;96446.69;5044836;28;20944;-75
2022/03/18 06:44:41;;;;;;;4.47;3.13;;;;;;;12.04;78.97;96451.22;5043266;28;20202;-75
2022/03/18 06:47:08;;;;;;;4.97;3.40;;;;;;;12.70;81.39;96454.44;5046867;28;20195;-73
2022/03/18 06:49:35;;;;;;;6.83;4.40;;;;;;;13.21;74.64;96451.63;5048548;28;20218;-75
2022/03/18 06:52:04;;;;;;;5.93;4.70;;;;;;;13.44;67.94;96461.13;5044394;28;20191;-73
2022/03/18 06:54:32;;;;;;;6.23;4.90;;;;;;;13.51;64.41;96461.47;5048928;28;20205;-75
2022/03/18 06:56:59;;;;;;;6.70;4.90;;;;;;;13.41;61.02;96468.22;5046537;28;20188;-74
2022/03/18 06:59:26;;;;;;;9.13;5.30;;;;;;;13.26;56.82;96476.13;5048024;28;20207;-75
2022/03/18 07:01:54;;;;;;;6.50;5.80;;;;;;;13.10;53.35;96470.41;5046459;28;20203;-73
2022/03/18 07:04:20;;;;;;;6.17;5.57;;;;;;;12.95;51.32;96472.31;5049585;28;20218;-76
2022/03/18 07:06:47;;;;;;;11.80;5.73;;;;;;;12.84;50.21;96476.56;5049358;28;20207;-74
2022/03/18 07:09:14;;;;;;;7.57;5.73;;;;;;;12.75;49.50;96475.47;5047555;28;20333;-76
2022/03/18 07:11:42;;;;;;;4.87;4.30;;;;;;;12.89;47.94;96484.75;5047355;28;20802;-73
2022/03/18 07:14:09;;;;;;;6.53;5.30;;;;;;;13.31;46.85;96486.06;5044061;28;20203;-72
2022/03/18 07:19:20;;;;;;;5.50;4.53;;;;;;;14.35;46.42;96487.84;5048678;28;20186;-74
2022/03/18 07:21:47;;;;;;;6.20;4.47;;;;;;;14.75;45.56;96490.75;5049561;28;20206;-74
2022/03/18 07:24:14;;;;;;;5.27;4.40;;;;;;;15.26;44.63;96482.47;5049147;28;20188;-74
2022/03/18 07:26:42;;;;;;;6.30;4.43;;;;;;;15.73;44.09;96477.84;5051387;28;20203;-73
2022/03/18 07:29:09;;;;;;;5.60;5.00;;;;;;;15.96;43.56;96483.69;5048908;28;20230;-75
2022/03/18 07:31:36;;;;;;;5.50;4.73;;;;;;;16.08;42.48;96487.84;5049013;28;20252;-70
2022/03/18 07:34:02;;;;;;;6.27;4.47;;;;;;;16.10;42.24;96491.09;5048408;28;20183;-75
2022/03/18 07:36:30;;;;;;;6.77;4.70;;;;;;;16.03;41.72;96488.22;5048665;28;20226;-79
2022/03/18 07:38:57;;;;;;;5.57;4.47;;;;;;;16.00;41.18;96497.97;5049088;28;20210;-80
2022/03/18 07:41:23;;;;;;;5.53;4.00;;;;;;;15.98;40.24;96500.69;5048745;28;20218;-76
2022/03/18 07:43:52;;;;;;;6.87;4.23;;;;;;;16.17;38.41;96499.97;5048079;28;20190;-77
2022/03/18 07:46:19;;;;;;;4.60;3.90;;;;;;;16.50;37.72;96501.50;5048846;28;20206;-72
2022/03/18 07:48:46;;;;;;;6.13;4.03;;;;;;;16.95;37.22;96506.28;5048629;28;20705;-74
2022/03/18 07:51:13;;;;;;;4.37;3.70;;;;;;;17.39;36.84;96505.94;5048756;28;20634;-73
2022/03/18 07:53:40;;;;;;;4.13;3.73;;;;;;;17.79;36.31;96498.91;5048608;28;20222;-76
2022/03/18 07:56:07;;;;;;;4.83;4.07;;;;;;;18.28;35.72;96506.59;5047348;28;20191;-79
2022/03/18 07:58:34;;;;;;;4.77;3.30;;;;;;;18.76;43.77;96524.59;5047892;28;20616;-74
2022/03/18 08:01:02;;;;;;;3.33;3.03;;;;;;;19.13;41.25;96513.34;5046281;28;20198;-72
2022/03/18 08:03:29;;;;;;;6.63;3.20;;;;;;;19.50;39.43;96515.00;5050648;28;20187;-76
2022/03/18 08:05:55;;;;;;;5.70;3.93;;;;;;;19.78;37.81;96510.59;5050680;28;20206;-74
2022/03/18 08:08:22;;;;;;;4.57;4.00;;;;;;;20.12;36.29;96512.44;5050805;28;20226;-75
2022/03/18 08:10:49;;;;;;;4.63;3.90;;;;;;;20.46;34.20;96528.09;5050926;28;20710;-77
2022/03/18 08:13:21;;;;;;;5.23;3.30;;;;;;;20.71;33.85;96522.06;5047738;28;20180;-74
2022/03/18 08:15:48;;;;;;;4.60;3.60;;;;;;;20.93;33.42;96517.28;5050769;28;20261;-76
2022/03/18 08:18:17;;;;;;;5.93;4.40;;;;;;;21.05;32.65;96508.22;5050460;28;20190;-74
2022/03/18 08:20:44;;;;;;;5.37;4.10;;;;;;;21.22;31.75;96525.53;5050090;28;20198;-73
2022/03/18 08:23:12;;;;;;;8.23;4.53;;;;;;;21.32;31.22;96508.97;5049804;28;20194;-76
2022/03/18 08:25:39;;;;;;;4.75;4.25;;;;;;;21.41;30.81;96521.03;5049670;28;20203;-75
2022/03/18 08:28:07;;;;;;;5.75;3.95;;;;;;;21.48;30.59;96504.63;5049058;28;20223;-79
2022/03/18 08:30:34;;;;;;;4.68;4.10;;;;;;;21.52;30.39;96516.34;5050376;28;20274;-76
2022/03/18 08:33:01;;;;;;;5.40;4.10;;;;;;;21.48;29.87;96516.81;5049482;28;20249;-74
2022/03/18 08:35:30;;;;;;;4.57;4.00;;;;;;;21.48;29.29;96516.81;5050089;28;20205;-74
2022/03/18 08:38:00;;;;;;;6.00;3.63;;;;;;;21.51;29.31;96522.53;5049441;28;20242;-74
2022/03/18 08:40:29;;;;;;;5.43;4.63;;;;;;;21.54;28.62;96504.00;5050238;28;20257;-73
2022/03/18 08:42:57;;;;;;;4.77;4.30;;;;;;;21.57;28.65;96505.44;5047598;28;20218;-77
2022/03/18 08:45:24;;;;;;;4.78;4.32;;;;;;;21.58;28.49;96508.84;5047575;28;20666;-76
2022/03/18 08:47:53;;;;;;;7.65;4.63;;;;;;;21.60;28.25;96512.13;5049620;28;20590;-75
2022/03/18 08:50:21;;;;;;;4.80;4.40;;;;;;;21.59;28.26;96510.47;5050147;28;20285;-76
2022/03/18 08:52:51;;;;;;;6.35;4.65;;;;;;;21.53;27.87;96517.97;5045282;28;20191;-77
2022/03/18 08:55:18;;;;;;;4.47;4.00;;;;;;;21.40;27.65;96517.63;5050261;28;20187;-75
2022/03/18 08:57:45;;;;;;;4.77;4.23;;;;;;;21.31;27.51;96513.34;5049818;28;20203;-77
2022/03/18 09:00:14;;;;;;;4.70;4.30;;;;;;;21.27;27.46;96506.81;5045107;28;20204;-77
2022/03/18 09:02:42;;;;;;;6.23;4.27;;;;;;;21.22;27.21;96504.69;5048594;28;20186;-76
2022/03/18 09:05:10;;;;;;;6.23;4.43;;;;;;;21.15;27.28;96497.69;5048937;28;20690;-77
2022/03/18 09:07:38;;;;;;;4.73;4.30;;;;;;;21.08;27.19;96501.91;5047281;28;20693;-74
2022/03/18 09:10:09;;;;;;;4.83;4.30;;;;;;;20.94;26.83;96498.09;5049539;28;20639;-77
2022/03/18 09:12:36;;;;;;;7.90;4.50;;;;;;;20.88;27.39;96496.97;5048712;28;20179;-73
2022/03/18 09:15:03;;;;;;;6.70;5.00;;;;;;;20.71;27.37;96503.88;5049458;28;20191;-74
2022/03/18 09:17:30;;;;;;;5.50;5.00;;;;;;;20.45;26.75;96506.47;5048365;28;20218;-72
2022/03/18 09:19:58;;;;;;;6.20;4.47;;;;;;;20.19;26.88;96510.88;5049064;28;20191;-77
2022/03/18 09:22:25;;;;;;;5.47;4.17;;;;;;;19.75;26.07;96511.69;5048985;28;20226;-73
2022/03/18 09:24:52;;;;;;;5.80;4.63;;;;;;;19.54;26.58;96509.38;5049070;28;20195;-73
2022/03/18 09:27:20;;;;;;;5.10;4.60;;;;;;;19.46;26.80;96517.06;5049402;28;20198;-73
2022/03/18 09:29:47;;;;;;;4.63;4.23;;;;;;;19.35;26.99;96512.13;5048992;28;20288;-72
2022/03/18 09:32:15;;;;;;;10.60;4.43;;;;;;;19.12;26.72;96506.50;5047039;28;20559;-72
2022/03/18 09:34:42;;;;;;;4.80;4.40;;;;;;;18.86;27.03;96519.34;5049014;28;20206;-74
2022/03/18 09:37:09;;;;;;;6.80;4.63;;;;;;;18.58;26.99;96513.31;5048858;28;20226;-72
2022/03/18 09:39:36;;;;;;;5.77;4.83;;;;;;;18.31;27.11;96519.28;5048497;28;20206;-73
2022/03/18 09:42:04;;;;;;;6.30;4.40;;;;;;;18.05;27.11;96521.66;5046755;28;20620;-73
2022/03/18 09:44:37;;;;;;;7.10;4.77;;;;;;;17.63;27.01;96497.81;5048918;28;20245;-72
2022/03/18 09:47:05;;;;;;;6.83;5.00;;;;;;;17.37;27.16;96497.53;5049047;28;20187;-72
2022/03/18 09:49:34;;;;;;;5.13;4.63;;;;;;;17.13;27.26;96496.13;5048893;28;20713;-71
2022/03/18 09:52:01;;;;;;;5.40;4.27;;;;;;;16.99;27.30;96504.25;5043931;28;20239;-73
2022/03/18 09:54:29;;;;;;;5.57;4.67;;;;;;;16.89;27.52;96493.09;5048707;28;20245;-72
2022/03/18 09:56:57;;;;;;;6.77;5.00;;;;;;;16.80;27.81;96503.28;5046252;28;20278;-71
2022/03/18 09:59:26;;;;;;;5.07;4.47;;;;;;;16.79;27.96;96495.63;5049230;28;20202;-72
2022/03/18 10:02:25;;;;;;;7.60;3.80;;;;;;;16.89;27.94;96504.25;5043999;28;20217;-78
2022/03/18 10:04:53;;;;;;;5.17;4.67;;;;;;;16.64;27.77;96495.16;5047357;28;20278;-79
2022/03/18 10:07:21;;;;;;;8.53;4.80;;;;;;;16.41;27.93;96498.88;5048492;28;20249;-78
2022/03/18 10:09:49;;;;;;;5.47;4.53;;;;;;;16.24;28.41;96497.72;5048547;28;20760;-74
2022/03/18 10:12:33;;;;;;;4.93;4.43;;;;;;;16.11;28.28;96505.66;5048835;28;20233;-75
2022/03/18 10:15:09;;;;;;;8.10;4.97;;;;;;;16.07;28.29;96511.19;5048171;28;20187;-74
2022/03/18 10:17:46;;;;;;;6.97;5.10;;;;;;;15.98;28.40;96495.53;5048537;28;20198;-72
2022/03/18 10:20:32;;;;;;;6.40;5.27;;;;;;;15.87;28.53;96493.00;5047117;28;20220;-73
2022/03/18 10:23:03;;;;;;;7.53;4.93;;;;;;;15.77;28.69;96492.13;5049885;28;20199;-73
2022/03/18 10:25:36;;;;;;;4.80;4.37;;;;;;;15.61;28.77;96502.81;5052428;28;20624;-73
2022/03/18 10:28:03;;;;;;;6.73;5.10;;;;;;;15.46;28.93;96498.91;5052339;28;20197;-74
2022/03/18 10:30:31;;;;;;;5.17;4.67;;;;;;;15.41;29.09;96488.13;5052039;28;20740;-71
2022/03/18 10:32:59;;;;;;;9.13;5.37;;;;;;;15.49;29.07;96489.16;5051595;28;20199;-73
2022/03/18 10:38:32;;;;;;;7.17;5.60;;;;;;;15.45;29.06;96486.94;5051875;28;20230;-74
2022/03/18 10:41:01;;;;;;;5.50;5.00;;;;;;;15.37;29.64;96487.59;5052286;28;20198;-76
2022/03/18 10:43:28;;;;;;;9.50;6.07;;;;;;;15.29;29.86;96483.03;5052026;28;20269;-74
2022/03/18 10:46:02;;;;;;;6.47;5.77;;;;;;;15.22;29.84;96489.59;5052052;28;20191;-73
2022/03/18 10:48:31;;;;;;;9.17;6.77;;;;;;;15.13;30.07;96490.34;5051764;28;20198;-76
2022/03/18 10:51:07;;;;;;;11.00;6.07;;;;;;;15.05;30.25;96490.94;5052181;28;20195;-75
2022/03/18 10:53:37;;;;;;;8.77;6.10;;;;;;;14.99;30.46;96496.59;5051502;28;20281;-74
2022/03/18 10:56:04;;;;;;;7.27;5.30;;;;;;;14.90;30.38;96491.34;5034160;28;20281;-71
2022/03/18 10:58:32;;;;;;;7.17;5.73;;;;;;;14.82;30.49;96497.09;5050169;28;20249;-71
2022/03/18 11:01:02;;;;;;;7.40;5.80;;;;;;;14.71;30.46;96487.59;5051460;28;20199;-71
2022/03/18 11:03:31;;;;;;;5.97;5.37;;;;;;;14.66;30.11;96483.75;5051178;28;20199;-72
2022/03/18 11:06:02;;;;;;;6.07;5.00;;;;;;;14.66;30.20;96476.84;5051677;28;20199;-72
2022/03/18 11:08:35;;;;;;;6.67;5.50;;;;;;;14.65;30.07;96482.13;5051000;28;20191;-72
2022/03/18 11:11:07;;;;;;;7.57;5.53;;;;;;;14.59;30.10;96480.81;5048968;28;20298;-72
2022/03/18 11:13:40;;;;;;;7.70;5.50;;;;;;;14.48;30.00;96480.81;5049188;28;20191;-72
2022/03/18 11:16:10;;;;;;;6.73;5.27;;;;;;;14.34;30.13;96493.94;5051462;28;20261;-72
2022/03/18 11:18:39;;;;;;;5.90;4.90;;;;;;;14.18;30.04;96489.09;5051334;28;20191;-75
2022/03/18 11:21:09;;;;;;;6.13;5.53;;;;;;;13.97;30.03;96491.53;5051449;28;20236;-72
2022/03/18 11:23:40;;;;;;;6.40;4.70;;;;;;;13.80;30.14;96495.34;5051282;28;20203;-73
2022/03/18 11:26:08;;;;;;;7.97;5.10;;;;;;;13.65;30.27;96494.72;5048640;28;20195;-72
2022/03/18 11:28:35;;;;;;;7.07;5.47;;;;;;;13.51;29.98;96476.91;5051387;28;20203;-73
2022/03/18 11:31:04;;;;;;;5.87;5.17;;;;;;;13.50;30.31;96475.25;5050784;28;20210;-72
2022/03/18 11:33:31;;;;;;;5.90;5.00;;;;;;;13.51;30.25;96477.75;5050020;28;20210;-72
2022/03/18 11:36:16;;;;;;;5.03;4.53;;;;;;;13.48;30.34;96477.16;5048560;28;20207;-72
2022/03/18 11:38:56;;;;;;;4.80;4.33;;;;;;;13.38;30.51;96476.97;5050977;28;20195;-72
2022/03/18 11:41:25;;;;;;;8.93;5.67;;;;;;;13.27;30.32;96469.22;5051075;28;20266;-72
2022/03/18 11:43:54;;;;;;;5.90;4.60;;;;;;;13.19;30.71;96476.63;5050956;28;20191;-71
2022/03/18 11:46:27;;;;;;;5.80;4.83;;;;;;;13.11;30.70;96466.09;5051080;28;20657;-74
2022/03/18 11:48:56;;;;;;;7.40;5.03;;;;;;;12.98;30.52;96461.00;5050656;28;20738;-72
2022/03/18 11:51:30;;;;;;;10.93;5.03;;;;;;;12.95;30.58;96458.63;5048018;28;20286;-74
2022/03/18 11:53:59;;;;;;;6.57;4.97;;;;;;;12.86;30.73;96467.81;5048910;28;20203;-72